Terminal Aerodrome Forecast
Issued by NWS

Home | Current Version | Previous Version | Text Only | Print | Product List | Glossary On
Versions: 1 2 3 4 5 6 7 8 9 10 11 12 13 14 15 16 17 18 19 20 21
000
FTUS42 KMHX 191120
TAFOAJ
TAF
KOAJ 191120Z 1912/2012 07004KT 5SM BR BKN019 OVC120
     FM191300 09010KT P6SM VCSH SCT025 BKN040
     FM191700 14010KT 4SM -SHRA OVC025
     FM192100 14010KT 3SM SHRA OVC009
     FM200600 19008KT 5SM -SHRA OVC005
      AMD LTD TO CLD VIS AND WIND=

USA.gov is the U.S. government's official web portal to all federal, state and local government web resources and services.